createdAt,value
2023-05-15T00:01:41.634Z,70.40
2023-05-15T00:04:09.530Z,70.20
2023-05-15T00:06:38.783Z,70.20
2023-05-15T00:09:06.667Z,70.30
2023-05-15T00:11:34.762Z,70.60
2023-05-15T00:14:02.691Z,70.70
2023-05-15T00:16:30.665Z,70.40
2023-05-15T00:18:58.689Z,70.10
2023-05-15T00:21:26.642Z,70.10
2023-05-15T00:23:57.019Z,70.10
2023-05-15T00:26:25.129Z,70.10
2023-05-15T00:28:53.060Z,70.00
2023-05-15T00:31:22.445Z,70.00
2023-05-15T00:33:50.463Z,69.90
2023-05-15T00:36:21.385Z,70.20
2023-05-15T00:38:51.732Z,70.40
2023-05-15T00:41:21.650Z,70.40
2023-05-15T00:43:49.837Z,70.20
2023-05-15T00:46:17.884Z,70.00
2023-05-15T00:48:45.817Z,69.90
2023-05-15T00:51:13.737Z,70.10
2023-05-15T00:53:41.757Z,70.10
2023-05-15T00:56:10.270Z,70.00
2023-05-15T00:58:39.688Z,70.00
2023-05-15T01:01:08.679Z,70.00
2023-05-15T01:03:37.749Z,70.40
2023-05-15T01:06:08.399Z,70.50
2023-05-15T01:08:38.905Z,70.30
2023-05-15T01:11:07.398Z,70.10
2023-05-15T01:13:35.427Z,70.20
2023-05-15T01:16:06.140Z,70.60
2023-05-15T01:18:34.198Z,70.60
2023-05-15T01:21:21.558Z,70.40
2023-05-15T01:23:56.078Z,70.10
2023-05-15T01:26:36.449Z,69.90
2023-05-15T01:29:09.180Z,70.00
2023-05-15T01:31:37.145Z,70.10
2023-05-15T01:34:07.132Z,70.00
2023-05-15T01:36:38.479Z,70.00
2023-05-15T01:39:06.548Z,69.80
2023-05-15T01:41:41.517Z,70.20
2023-05-15T01:44:18.341Z,70.30
2023-05-15T01:46:47.656Z,70.30
2023-05-15T01:49:16.483Z,70.20
2023-05-15T01:51:46.810Z,70.20
2023-05-15T01:54:14.874Z,70.40
2023-05-15T01:56:45.022Z,70.50
2023-05-15T01:59:14.648Z,70.50
2023-05-15T02:01:42.650Z,70.30
2023-05-15T02:04:10.773Z,70.20
2023-05-15T02:06:38.734Z,70.40
2023-05-15T02:09:06.788Z,70.70
2023-05-15T02:11:34.748Z,70.60
2023-05-15T02:14:04.010Z,70.40
2023-05-15T02:16:33.650Z,69.80
2023-05-15T02:19:01.832Z,69.50
2023-05-15T02:21:30.661Z,69.40
2023-05-15T02:23:58.623Z,69.30
2023-05-15T02:26:31.343Z,69.30
2023-05-15T02:29:05.370Z,69.40
2023-05-15T02:31:36.780Z,70.00
2023-05-15T02:34:11.076Z,70.10
2023-05-15T02:36:39.565Z,70.00
2023-05-15T02:39:07.444Z,69.90
2023-05-15T02:41:35.345Z,70.10
2023-05-15T02:44:03.262Z,70.40
2023-05-15T02:46:31.630Z,70.40
2023-05-15T02:49:01.836Z,70.30
2023-05-15T02:51:30.021Z,70.30
2023-05-15T02:53:58.030Z,70.20
2023-05-15T02:56:26.010Z,70.50
2023-05-15T02:58:53.892Z,70.60
2023-05-15T03:01:21.932Z,70.40
2023-05-15T03:03:49.895Z,70.10
2023-05-15T03:06:19.160Z,69.90
2023-05-15T03:08:47.191Z,69.80
2023-05-15T03:11:15.124Z,70.10
2023-05-15T03:13:43.084Z,70.10
2023-05-15T03:16:11.288Z,70.00
2023-05-15T03:18:39.218Z,69.80
2023-05-15T03:21:07.230Z,69.80
2023-05-15T03:23:37.821Z,70.20
2023-05-15T03:26:06.221Z,70.30
2023-05-15T03:28:34.194Z,70.20
2023-05-15T03:31:02.219Z,70.10
2023-05-15T03:33:30.432Z,70.20
2023-05-15T03:35:58.560Z,70.40
2023-05-15T03:38:26.514Z,70.60
2023-05-15T03:40:55.781Z,70.30
2023-05-15T03:43:26.789Z,69.90
2023-05-15T03:45:55.593Z,69.50
2023-05-15T03:48:23.586Z,69.50
2023-05-15T03:50:52.212Z,69.40
2023-05-15T03:53:21.328Z,69.30
2023-05-15T03:55:49.257Z,69.50
2023-05-15T03:58:18.517Z,70.00
2023-05-15T04:00:46.447Z,70.10
2023-05-15T04:03:14.495Z,70.10
2023-05-15T04:05:42.677Z,69.90
2023-05-15T04:08:12.338Z,70.00
2023-05-15T04:10:40.334Z,70.30
2023-05-15T04:13:08.263Z,70.40
2023-05-15T04:15:37.970Z,70.30
2023-05-15T04:18:06.299Z,70.30
2023-05-15T04:20:34.653Z,70.30
2023-05-15T04:23:03.950Z,70.60
2023-05-15T04:25:32.331Z,70.60
2023-05-15T04:28:00.529Z,70.50
2023-05-15T04:30:28.557Z,70.20
2023-05-15T04:32:57.867Z,70.00
2023-05-15T04:35:26.148Z,69.90
2023-05-15T04:37:54.295Z,70.10
2023-05-15T04:40:22.215Z,70.80
2023-05-15T04:42:50.132Z,70.00
2023-05-15T04:45:18.246Z,69.90
2023-05-15T04:47:46.138Z,70.00
2023-05-15T04:50:15.586Z,70.40
2023-05-15T04:52:45.578Z,70.30
2023-05-15T04:55:13.450Z,70.20
2023-05-15T04:57:41.376Z,70.20
2023-05-15T05:00:12.328Z,70.20
2023-05-15T05:02:40.866Z,70.50
2023-05-15T05:05:09.440Z,70.60
2023-05-15T05:07:38.695Z,70.30
2023-05-15T05:10:08.042Z,70.00
2023-05-15T05:12:35.964Z,69.60
2023-05-15T05:15:03.912Z,69.50
2023-05-15T05:17:31.974Z,69.40
2023-05-15T05:19:59.885Z,69.30
2023-05-15T05:22:27.817Z,69.50
2023-05-15T05:25:00.695Z,69.90
2023-05-15T05:27:30.551Z,70.10
2023-05-15T05:29:58.480Z,70.10
2023-05-15T05:32:26.383Z,70.00
2023-05-15T05:34:54.281Z,70.10
2023-05-15T05:37:22.172Z,70.40
2023-05-15T05:39:50.063Z,70.50
2023-05-15T05:42:19.320Z,70.40
2023-05-15T05:44:47.521Z,70.30
2023-05-15T05:47:15.481Z,70.40
2023-05-15T05:49:43.469Z,70.60
2023-05-15T05:52:11.751Z,70.60
2023-05-15T05:54:40.968Z,71.20
2023-05-15T05:57:08.972Z,70.10
2023-05-15T05:59:38.313Z,69.90
2023-05-15T06:02:06.392Z,69.60
2023-05-15T06:04:34.571Z,69.40
2023-05-15T06:07:02.916Z,69.50
2023-05-15T06:09:30.877Z,69.60
2023-05-15T06:11:58.875Z,70.00
2023-05-15T06:14:26.800Z,70.10
2023-05-15T06:16:56.108Z,70.10
2023-05-15T06:19:24.416Z,70.10
2023-05-15T06:21:52.344Z,70.10
2023-05-15T06:24:20.258Z,70.30
2023-05-15T06:26:48.859Z,70.50
2023-05-15T06:29:17.515Z,70.50
2023-05-15T06:31:45.463Z,70.20
2023-05-15T06:34:14.715Z,70.00
2023-05-15T06:36:42.605Z,69.80
2023-05-15T06:39:11.489Z,70.10
2023-05-15T06:41:39.349Z,70.00
2023-05-15T06:44:13.186Z,69.90
2023-05-15T06:46:41.280Z,69.90
2023-05-15T06:49:09.452Z,70.10
2023-05-15T06:51:38.735Z,70.40
2023-05-15T06:54:06.809Z,70.30
2023-05-15T06:56:34.719Z,70.20
2023-05-15T06:59:02.701Z,70.20
2023-05-15T07:01:32.032Z,70.30
2023-05-15T07:04:00.078Z,70.60
2023-05-15T07:06:28.157Z,70.60
2023-05-15T07:08:57.423Z,70.50
2023-05-15T07:11:25.570Z,70.50
2023-05-15T07:13:53.526Z,70.50
2023-05-15T07:16:24.167Z,70.60
2023-05-15T07:18:54.691Z,70.70
2023-05-15T07:21:25.693Z,70.60
2023-05-15T07:23:53.711Z,70.30
2023-05-15T07:26:34.320Z,69.80
2023-05-15T07:29:06.370Z,70.30
2023-05-15T07:31:34.667Z,69.40
2023-05-15T07:34:02.625Z,69.30
2023-05-15T07:36:30.749Z,69.30
2023-05-15T07:38:58.690Z,69.50
2023-05-15T07:41:27.989Z,70.00
2023-05-15T07:43:57.589Z,69.90
2023-05-15T07:46:26.015Z,69.90
2023-05-15T07:48:55.227Z,70.00
2023-05-15T07:51:23.205Z,70.20
2023-05-15T07:53:51.094Z,70.40
2023-05-15T07:56:18.996Z,70.30
2023-05-15T07:58:48.306Z,70.30
2023-05-15T08:01:18.240Z,70.30
2023-05-15T08:03:46.210Z,70.40
2023-05-15T08:06:14.162Z,70.70
2023-05-15T08:08:42.054Z,70.60
2023-05-15T08:11:09.966Z,70.30
2023-05-15T08:13:37.923Z,70.10
2023-05-15T08:16:07.597Z,70.00
2023-05-15T08:18:36.119Z,70.00
2023-05-15T08:21:04.723Z,70.20
2023-05-15T08:23:32.768Z,70.10
2023-05-15T08:26:00.670Z,70.00
2023-05-15T08:28:30.703Z,70.10
2023-05-15T08:30:58.586Z,70.10
2023-05-15T08:33:27.825Z,70.50
2023-05-15T08:35:55.830Z,70.40
2023-05-15T08:38:23.874Z,70.30
2023-05-15T08:40:51.840Z,70.30
2023-05-15T08:43:19.737Z,70.40
2023-05-15T08:45:47.647Z,70.70
2023-05-15T08:48:17.241Z,70.70
2023-05-15T08:50:48.580Z,70.50
2023-05-15T08:53:21.367Z,70.10
2023-05-15T08:55:49.246Z,69.90
2023-05-15T08:58:18.199Z,69.70
2023-05-15T09:00:46.133Z,69.50
2023-05-15T09:03:15.528Z,69.60
2023-05-15T09:05:43.690Z,69.80
2023-05-15T09:08:12.898Z,70.30
2023-05-15T09:10:40.794Z,70.30
2023-05-15T09:13:08.717Z,70.80
2023-05-15T09:15:37.350Z,70.10
2023-05-15T09:18:05.490Z,70.30
2023-05-15T09:20:34.165Z,70.60
2023-05-15T09:23:02.820Z,70.60
2023-05-15T09:25:37.625Z,70.40
2023-05-15T09:28:05.905Z,70.40
2023-05-15T09:30:34.698Z,70.40
2023-05-15T09:33:03.626Z,70.80
2023-05-15T09:35:35.218Z,70.90
2023-05-15T09:38:04.224Z,70.60
2023-05-15T09:40:32.496Z,70.20
2023-05-15T09:43:01.781Z,69.80
2023-05-15T09:45:31.496Z,69.80
2023-05-15T09:48:02.311Z,69.70
2023-05-15T09:50:34.453Z,69.70
2023-05-15T09:53:02.464Z,69.80
2023-05-15T09:55:32.674Z,70.30
2023-05-15T09:58:08.660Z,70.40
2023-05-15T10:00:36.619Z,70.20
2023-05-15T10:03:17.143Z,70.20
2023-05-15T10:05:45.330Z,70.40
2023-05-15T10:08:14.854Z,70.70
2023-05-15T10:10:43.228Z,70.60
2023-05-15T10:13:12.659Z,70.60
2023-05-15T10:15:40.659Z,70.60
2023-05-15T10:18:08.732Z,70.50
2023-05-15T10:20:36.836Z,70.80
2023-05-15T10:23:05.566Z,70.90
2023-05-15T10:25:36.690Z,70.80
2023-05-15T10:28:04.647Z,70.20
2023-05-15T10:30:34.241Z,69.90
2023-05-15T10:33:02.172Z,69.90
2023-05-15T10:35:30.067Z,69.70
2023-05-15T10:37:58.027Z,69.80
2023-05-15T10:40:26.142Z,70.00
2023-05-15T10:42:54.279Z,70.40
2023-05-15T10:45:22.195Z,70.40
2023-05-15T10:47:51.451Z,70.40
2023-05-15T10:50:19.344Z,70.30
2023-05-15T10:52:52.196Z,70.40
2023-05-15T10:55:20.231Z,70.80
2023-05-15T10:57:48.432Z,70.80
2023-05-15T11:00:29.083Z,70.50
2023-05-15T11:02:59.211Z,70.30
2023-05-15T11:05:30.926Z,70.10
2023-05-15T11:08:29.791Z,70.20
2023-05-15T11:10:57.913Z,70.30
2023-05-15T11:13:25.795Z,70.20
2023-05-15T11:15:54.381Z,70.20
2023-05-15T11:18:23.675Z,70.10
2023-05-15T11:21:07.020Z,70.30
2023-05-15T11:23:39.824Z,70.70
2023-05-15T11:26:07.735Z,70.60
2023-05-15T11:28:43.476Z,70.60
2023-05-15T11:31:11.415Z,70.60
2023-05-15T11:33:41.521Z,70.70
2023-05-15T11:36:09.534Z,70.90
2023-05-15T11:38:40.726Z,70.70
2023-05-15T11:41:21.655Z,70.50
2023-05-15T11:43:49.624Z,70.00
2023-05-15T11:46:17.623Z,69.80
2023-05-15T11:48:48.616Z,69.80
2023-05-15T11:51:18.791Z,69.80
2023-05-15T11:53:46.693Z,70.00
2023-05-15T11:56:17.721Z,70.40
2023-05-15T11:58:45.703Z,70.40
2023-05-15T12:01:13.591Z,70.30
2023-05-15T12:03:41.636Z,70.40
2023-05-15T12:06:12.846Z,70.50
2023-05-15T12:08:42.025Z,70.80
2023-05-15T12:11:09.971Z,70.80
2023-05-15T12:13:37.924Z,70.70
2023-05-15T12:16:08.866Z,70.60
2023-05-15T12:18:36.907Z,70.70
2023-05-15T12:21:07.756Z,70.80
2023-05-15T12:23:37.014Z,71.10
2023-05-15T12:26:04.978Z,70.90
2023-05-15T12:28:35.537Z,70.60
2023-05-15T12:31:03.995Z,70.20
2023-05-15T12:33:32.045Z,69.90
2023-05-15T12:36:01.828Z,69.80
2023-05-15T12:38:30.416Z,69.90
2023-05-15T12:40:59.735Z,69.90
2023-05-15T12:43:27.631Z,70.20
2023-05-15T12:45:55.918Z,70.50
2023-05-15T12:48:23.858Z,70.40
2023-05-15T12:50:51.920Z,70.40
2023-05-15T12:53:19.852Z,70.50
2023-05-15T12:55:48.754Z,70.60
2023-05-15T12:58:19.069Z,70.80
2023-05-15T13:00:47.961Z,70.80
2023-05-15T13:03:16.153Z,70.60
2023-05-15T13:05:44.835Z,70.60
2023-05-15T13:08:16.356Z,70.60
2023-05-15T13:10:44.292Z,70.80
2023-05-15T13:13:12.206Z,70.60
2023-05-15T13:15:43.181Z,70.50
2023-05-15T13:18:11.614Z,70.00
2023-05-15T13:20:42.446Z,69.70
2023-05-15T13:23:10.909Z,69.60
2023-05-15T13:25:38.835Z,69.50
2023-05-15T13:28:07.356Z,69.70
2023-05-15T13:30:35.552Z,69.80
2023-05-15T13:33:04.886Z,70.30
2023-05-15T13:35:33.188Z,70.30
2023-05-15T13:38:01.436Z,70.30
2023-05-15T13:40:31.083Z,70.30
2023-05-15T13:42:58.962Z,70.40
2023-05-15T13:45:26.885Z,70.60
2023-05-15T13:47:55.558Z,70.60
2023-05-15T13:50:25.154Z,70.40
2023-05-15T13:52:54.312Z,70.50
2023-05-15T13:55:23.262Z,70.50
2023-05-15T13:57:52.086Z,70.80
2023-05-15T14:00:21.355Z,70.90
2023-05-15T14:02:49.339Z,70.70
2023-05-15T14:05:18.612Z,70.40
2023-05-15T14:07:47.925Z,69.90
2023-05-15T14:10:15.823Z,69.80
2023-05-15T14:12:44.172Z,69.60
2023-05-15T14:15:12.948Z,69.60
2023-05-15T14:17:41.270Z,69.80
2023-05-15T14:20:11.396Z,70.00
2023-05-15T14:22:39.511Z,70.40
2023-05-15T14:25:10.122Z,70.40
2023-05-15T14:27:38.084Z,70.20
2023-05-15T14:30:11.747Z,70.30
2023-05-15T14:32:39.729Z,70.60
2023-05-15T14:35:08.308Z,70.70
2023-05-15T14:37:37.014Z,70.60
2023-05-15T14:40:06.877Z,70.40
2023-05-15T14:42:36.128Z,70.60
2023-05-15T14:45:04.867Z,70.60
2023-05-15T14:47:33.656Z,70.90
2023-05-15T14:50:01.672Z,70.80
2023-05-15T14:52:29.631Z,70.50
2023-05-15T14:55:09.311Z,70.10
2023-05-15T14:57:39.524Z,69.90
2023-05-15T15:00:09.414Z,69.80
2023-05-15T15:02:37.630Z,69.80
2023-05-15T15:05:06.424Z,69.80
2023-05-15T15:07:54.324Z,70.20
2023-05-15T15:10:23.397Z,70.40
2023-05-15T15:12:53.141Z,70.30
2023-05-15T15:15:21.283Z,70.30
2023-05-15T15:17:49.237Z,70.40
2023-05-15T15:20:17.788Z,70.50
2023-05-15T15:22:45.745Z,70.70
2023-05-15T15:25:13.741Z,70.50
2023-05-15T15:27:41.670Z,70.50
2023-05-15T15:30:11.558Z,70.60
2023-05-15T15:32:39.681Z,70.80
2023-05-15T15:35:10.558Z,71.00
2023-05-15T15:37:39.015Z,71.00
2023-05-15T15:40:08.106Z,70.60
2023-05-15T15:42:36.065Z,70.30
2023-05-15T15:45:04.716Z,69.90
2023-05-15T15:47:34.124Z,69.90
2023-05-15T15:50:04.261Z,69.60
2023-05-15T15:52:32.214Z,69.60
2023-05-15T15:55:00.270Z,69.70
2023-05-15T15:57:28.955Z,70.10
2023-05-15T15:59:56.954Z,70.40
2023-05-15T16:02:25.219Z,70.10
2023-05-15T16:04:54.748Z,70.20
2023-05-15T16:07:23.115Z,70.30
2023-05-15T16:10:00.212Z,70.60
2023-05-15T16:12:32.131Z,70.80
2023-05-15T16:15:06.835Z,70.50
2023-05-15T16:17:41.780Z,70.60
2023-05-15T16:20:11.613Z,70.60
2023-05-15T16:22:41.571Z,70.80
2023-05-15T16:25:10.095Z,70.60
2023-05-15T16:27:38.097Z,70.70
2023-05-15T16:30:11.468Z,70.40
2023-05-15T16:32:39.484Z,70.00
2023-05-15T16:35:08.368Z,69.70
2023-05-15T16:37:37.783Z,69.60
2023-05-15T16:40:07.007Z,69.50
2023-05-15T16:42:37.205Z,69.70
2023-05-15T16:45:06.112Z,69.80
2023-05-15T16:47:34.059Z,70.40
2023-05-15T16:50:02.017Z,70.40
2023-05-15T16:52:30.044Z,70.20
2023-05-15T16:54:59.373Z,70.30
2023-05-15T16:57:27.346Z,70.40
2023-05-15T16:59:55.285Z,70.70
2023-05-15T17:02:23.233Z,70.70
2023-05-15T17:04:53.156Z,70.50
2023-05-15T17:07:21.414Z,70.50
2023-05-15T17:09:49.291Z,70.60
2023-05-15T17:12:18.589Z,70.90
2023-05-15T17:14:49.321Z,71.00
2023-05-15T17:17:18.440Z,71.00
2023-05-15T17:19:46.413Z,70.70
2023-05-15T17:22:14.325Z,70.20
2023-05-15T17:24:50.840Z,70.00
2023-05-15T17:27:21.053Z,69.90
2023-05-15T17:29:49.118Z,70.00
2023-05-15T17:32:17.349Z,70.10
2023-05-15T17:34:47.111Z,70.30
2023-05-15T17:37:15.271Z,70.70
2023-05-15T17:39:43.250Z,71.20
2023-05-15T17:42:11.137Z,70.50
2023-05-15T17:44:40.427Z,70.70
2023-05-15T17:47:09.965Z,70.90
2023-05-15T17:49:38.551Z,71.10
2023-05-15T17:52:06.828Z,70.90
2023-05-15T17:54:34.853Z,70.90
2023-05-15T17:57:03.257Z,71.00
2023-05-15T17:59:31.886Z,71.10
2023-05-15T18:02:01.900Z,71.50
2023-05-15T18:04:30.078Z,71.30
2023-05-15T18:06:57.998Z,71.10
2023-05-15T18:09:25.964Z,70.60
2023-05-15T18:11:53.898Z,70.30
2023-05-15T18:14:21.868Z,70.10
2023-05-15T18:16:49.781Z,70.10
2023-05-15T18:19:19.177Z,70.80
2023-05-15T18:21:47.255Z,70.40
2023-05-15T18:24:15.237Z,70.80
2023-05-15T18:26:45.987Z,70.90
2023-05-15T18:29:14.068Z,70.80
2023-05-15T18:31:42.059Z,70.80
2023-05-15T18:34:12.159Z,70.90
2023-05-15T18:36:41.497Z,71.20
2023-05-15T18:39:09.459Z,71.10
2023-05-15T18:41:37.376Z,71.00
2023-05-15T18:44:05.694Z,70.90
2023-05-15T18:46:34.052Z,71.10
2023-05-15T18:49:03.288Z,71.30
2023-05-15T18:51:31.229Z,71.30
2023-05-15T18:54:04.267Z,71.10
2023-05-15T18:56:32.206Z,70.80
2023-05-15T18:59:02.954Z,70.30
2023-05-15T19:01:33.284Z,70.10
2023-05-15T19:04:04.269Z,70.00
2023-05-15T19:06:32.393Z,69.80
2023-05-15T19:09:01.630Z,70.10
2023-05-15T19:11:29.571Z,70.30
2023-05-15T19:13:57.426Z,70.60
2023-05-15T19:16:28.358Z,70.50
2023-05-15T19:18:56.481Z,70.60
2023-05-15T19:21:24.527Z,70.80
2023-05-15T19:23:52.478Z,70.80
2023-05-15T19:26:22.544Z,71.10
2023-05-15T19:28:50.477Z,71.00
2023-05-15T19:31:30.696Z,71.00
2023-05-15T19:33:59.659Z,71.00
2023-05-15T19:36:30.560Z,71.20
2023-05-15T19:38:58.888Z,71.10
2023-05-15T19:41:28.129Z,71.30
2023-05-15T19:43:56.086Z,71.30
2023-05-15T19:46:24.048Z,71.40
2023-05-15T19:48:52.015Z,71.40
2023-05-15T19:51:24.531Z,71.40
2023-05-15T19:53:52.446Z,71.50
2023-05-15T19:56:21.431Z,71.50
2023-05-15T19:58:50.704Z,71.70
2023-05-15T20:01:18.604Z,71.70
2023-05-15T20:03:46.630Z,71.40
2023-05-15T20:06:14.749Z,71.10
2023-05-15T20:08:43.327Z,70.40
2023-05-15T20:11:11.269Z,69.80
2023-05-15T20:13:39.248Z,69.20
2023-05-15T20:16:12.600Z,68.50
2023-05-15T20:18:42.006Z,67.90
2023-05-15T20:21:12.512Z,67.40
2023-05-15T20:23:40.511Z,67.00
2023-05-15T20:26:08.375Z,66.60
2023-05-15T20:28:36.293Z,67.10
2023-05-15T20:31:04.223Z,66.20
2023-05-15T20:33:33.644Z,66.50
2023-05-15T20:36:02.281Z,67.00
2023-05-15T20:38:30.251Z,67.50
2023-05-15T20:41:00.139Z,67.80
2023-05-15T20:43:28.358Z,68.20
2023-05-15T20:45:56.380Z,68.50
2023-05-15T20:48:24.316Z,69.00
2023-05-15T20:50:54.047Z,69.40
2023-05-15T20:53:22.002Z,69.50
2023-05-15T20:55:49.946Z,69.60
2023-05-15T20:58:17.878Z,70.30
2023-05-15T21:00:45.794Z,69.90
2023-05-15T21:03:14.931Z,70.40
2023-05-15T21:05:45.825Z,70.40
2023-05-15T21:08:15.202Z,70.00
2023-05-15T21:10:43.145Z,69.60
2023-05-15T21:13:11.088Z,69.40
2023-05-15T21:15:38.986Z,69.50
2023-05-15T21:18:07.187Z,70.20
2023-05-15T21:20:35.402Z,69.60
2023-05-15T21:23:03.422Z,70.30
2023-05-15T21:25:34.009Z,70.40
2023-05-15T21:28:01.886Z,70.30
2023-05-15T21:30:29.806Z,70.20
2023-05-15T21:32:57.833Z,70.40
2023-05-15T21:35:28.679Z,71.00
2023-05-15T21:37:56.626Z,70.90
2023-05-15T21:40:24.731Z,70.50
2023-05-15T21:42:54.152Z,70.10
2023-05-15T21:45:22.045Z,70.00
2023-05-15T21:47:49.973Z,69.90
2023-05-15T21:50:17.974Z,69.70
2023-05-15T21:52:45.859Z,69.90
2023-05-15T21:55:13.766Z,70.10
2023-05-15T21:57:41.639Z,70.70
2023-05-15T22:00:11.696Z,70.70
2023-05-15T22:02:39.764Z,70.40
2023-05-15T22:05:08.194Z,70.50
2023-05-15T22:07:36.075Z,70.70
2023-05-15T22:10:04.540Z,71.10
2023-05-15T22:12:33.079Z,71.00
2023-05-15T22:15:03.882Z,70.80
2023-05-15T22:17:36.104Z,70.80
2023-05-15T22:20:11.191Z,71.20
2023-05-15T22:22:39.742Z,71.30
2023-05-15T22:25:08.526Z,71.10
2023-05-15T22:27:36.719Z,70.70
2023-05-15T22:30:05.326Z,70.40
2023-05-15T22:32:34.639Z,70.30
2023-05-15T22:35:03.529Z,70.20
2023-05-15T22:37:31.506Z,70.10
2023-05-15T22:39:59.738Z,70.30
2023-05-15T22:42:28.121Z,70.80
2023-05-15T22:44:57.476Z,71.00
2023-05-15T22:47:25.451Z,70.70
2023-05-15T22:49:55.014Z,70.70
2023-05-15T22:52:23.172Z,70.80
2023-05-15T22:54:51.151Z,71.30
2023-05-15T22:57:19.073Z,71.30
2023-05-15T22:59:46.955Z,71.10
2023-05-15T23:02:14.821Z,70.70
2023-05-15T23:04:43.350Z,70.50
2023-05-15T23:07:12.635Z,70.30
2023-05-15T23:09:40.580Z,70.70
2023-05-15T23:12:08.904Z,70.70
2023-05-15T23:14:36.873Z,70.70
2023-05-15T23:17:05.047Z,70.50
2023-05-15T23:19:32.996Z,70.60
2023-05-15T23:22:00.995Z,70.90
2023-05-15T23:24:30.536Z,71.10
2023-05-15T23:27:01.284Z,71.00
2023-05-15T23:29:29.335Z,70.90
2023-05-15T23:31:57.829Z,70.90
2023-05-15T23:34:25.783Z,71.10
2023-05-15T23:36:53.952Z,71.40
2023-05-15T23:39:21.865Z,71.20
2023-05-15T23:41:51.361Z,71.00
2023-05-15T23:44:19.450Z,71.00
2023-05-15T23:46:47.462Z,71.10
2023-05-15T23:49:15.408Z,71.50
2023-05-15T23:51:43.619Z,71.40
2023-05-15T23:54:11.672Z,71.00
2023-05-15T23:56:39.567Z,70.50
2023-05-15T23:59:08.874Z,70.10
